sensor_id;sensor_type;location;lat;lon;timestamp;P1;durP1;ratioP1;P2;durP2;ratioP2
17199;SDS011;8716;52.268;20.968;2023-03-01T00:01:46;14.35;;;13.63;;
17199;SDS011;8716;52.268;20.968;2023-03-01T00:04:15;32.95;;;23.73;;
17199;SDS011;8716;52.268;20.968;2023-03-01T00:06:44;19.48;;;18.48;;
17199;SDS011;8716;52.268;20.968;2023-03-01T00:09:13;16.80;;;15.95;;
17199;SDS011;8716;52.268;20.968;2023-03-01T00:11:41;28.77;;;17.80;;
17199;SDS011;8716;52.268;20.968;2023-03-01T00:14:11;12.63;;;11.98;;
17199;SDS011;8716;52.268;20.968;2023-03-01T00:16:41;13.45;;;12.75;;
17199;SDS011;8716;52.268;20.968;2023-03-01T00:19:23;25.48;;;14.68;;
17199;SDS011;8716;52.268;20.968;2023-03-01T00:21:51;19.17;;;18.20;;
17199;SDS011;8716;52.268;20.968;2023-03-01T00:24:19;21.20;;;17.15;;
17199;SDS011;8716;52.268;20.968;2023-03-01T00:26:47;28.05;;;15.27;;
17199;SDS011;8716;52.268;20.968;2023-03-01T00:29:20;19.27;;;18.27;;
17199;SDS011;8716;52.268;20.968;2023-03-01T00:31:48;13.57;;;12.88;;
17199;SDS011;8716;52.268;20.968;2023-03-01T00:34:19;36.42;;;18.27;;
17199;SDS011;8716;52.268;20.968;2023-03-01T00:36:47;17.10;;;16.05;;
17199;SDS011;8716;52.268;20.968;2023-03-01T00:39:16;34.05;;;13.13;;
17199;SDS011;8716;52.268;20.968;2023-03-01T00:41:44;21.65;;;17.33;;
17199;SDS011;8716;52.268;20.968;2023-03-01T00:44:12;13.07;;;12.40;;
17199;SDS011;8716;52.268;20.968;2023-03-01T00:46:42;21.60;;;20.38;;
17199;SDS011;8716;52.268;20.968;2023-03-01T00:49:10;22.40;;;21.30;;
17199;SDS011;8716;52.268;20.968;2023-03-01T00:51:39;25.65;;;24.38;;
17199;SDS011;8716;52.268;20.968;2023-03-01T00:54:08;45.22;;;31.50;;
17199;SDS011;8716;52.268;20.968;2023-03-01T00:56:39;24.25;;;23.05;;
17199;SDS011;8716;52.268;20.968;2023-03-01T00:59:08;35.03;;;26.50;;
17199;SDS011;8716;52.268;20.968;2023-03-01T01:01:38;25.50;;;24.23;;
17199;SDS011;8716;52.268;20.968;2023-03-01T01:04:08;16.90;;;16.02;;
17199;SDS011;8716;52.268;20.968;2023-03-01T01:06:39;16.83;;;15.98;;
17199;SDS011;8716;52.268;20.968;2023-03-01T01:09:10;22.02;;;20.80;;
17199;SDS011;8716;52.268;20.968;2023-03-01T01:11:43;21.77;;;18.40;;
17199;SDS011;8716;52.268;20.968;2023-03-01T01:14:12;25.90;;;24.63;;
17199;SDS011;8716;52.268;20.968;2023-03-01T01:16:41;30.33;;;28.67;;
17199;SDS011;8716;52.268;20.968;2023-03-01T01:19:11;31.60;;;23.70;;
17199;SDS011;8716;52.268;20.968;2023-03-01T01:21:40;18.67;;;16.85;;
17199;SDS011;8716;52.268;20.968;2023-03-01T01:24:10;29.58;;;19.52;;
17199;SDS011;8716;52.268;20.968;2023-03-01T01:26:39;15.30;;;14.50;;
17199;SDS011;8716;52.268;20.968;2023-03-01T01:29:07;14.48;;;13.75;;
17199;SDS011;8716;52.268;20.968;2023-03-01T01:31:36;17.70;;;16.80;;
17199;SDS011;8716;52.268;20.968;2023-03-01T01:34:06;17.92;;;17.02;;
17199;SDS011;8716;52.268;20.968;2023-03-01T01:36:38;18.55;;;14.02;;
17199;SDS011;8716;52.268;20.968;2023-03-01T01:39:10;23.35;;;18.65;;
17199;SDS011;8716;52.268;20.968;2023-03-01T01:41:39;11.65;;;11.05;;
17199;SDS011;8716;52.268;20.968;2023-03-01T01:44:14;24.00;;;15.82;;
17199;SDS011;8716;52.268;20.968;2023-03-01T01:46:44;21.05;;;20.00;;
17199;SDS011;8716;52.268;20.968;2023-03-01T01:49:17;29.60;;;22.48;;
17199;SDS011;8716;52.268;20.968;2023-03-01T01:51:54;31.13;;;19.55;;
17199;SDS011;8716;52.268;20.968;2023-03-01T01:54:29;17.65;;;16.40;;
17199;SDS011;8716;52.268;20.968;2023-03-01T01:57:02;15.98;;;14.50;;
17199;SDS011;8716;52.268;20.968;2023-03-01T01:59:34;14.98;;;14.20;;
17199;SDS011;8716;52.268;20.968;2023-03-01T02:02:06;14.00;;;13.30;;
17199;SDS011;8716;52.268;20.968;2023-03-01T02:04:35;42.97;;;19.05;;
17199;SDS011;8716;52.268;20.968;2023-03-01T02:07:06;17.95;;;17.05;;
17199;SDS011;8716;52.268;20.968;2023-03-01T02:09:39;23.55;;;17.27;;
17199;SDS011;8716;52.268;20.968;2023-03-01T02:12:11;22.35;;;17.77;;
17199;SDS011;8716;52.268;20.968;2023-03-01T02:14:41;19.85;;;18.85;;
17199;SDS011;8716;52.268;20.968;2023-03-01T02:17:12;28.15;;;20.58;;
17199;SDS011;8716;52.268;20.968;2023-03-01T02:19:46;24.63;;;17.10;;
17199;SDS011;8716;52.268;20.968;2023-03-01T02:22:24;28.70;;;14.90;;
17199;SDS011;8716;52.268;20.968;2023-03-01T02:24:58;24.58;;;21.80;;
17199;SDS011;8716;52.268;20.968;2023-03-01T02:27:40;16.73;;;14.60;;
17199;SDS011;8716;52.268;20.968;2023-03-01T02:30:17;24.40;;;21.80;;
17199;SDS011;8716;52.268;20.968;2023-03-01T02:32:46;17.83;;;16.92;;
17199;SDS011;8716;52.268;20.968;2023-03-01T02:35:16;14.00;;;13.30;;
17199;SDS011;8716;52.268;20.968;2023-03-01T02:37:46;17.40;;;13.70;;
17199;SDS011;8716;52.268;20.968;2023-03-01T02:40:16;15.60;;;13.88;;
17199;SDS011;8716;52.268;20.968;2023-03-01T02:42:49;21.63;;;19.00;;
17199;SDS011;8716;52.268;20.968;2023-03-01T02:45:22;17.05;;;16.17;;
17199;SDS011;8716;52.268;20.968;2023-03-01T02:47:53;15.98;;;15.18;;
17199;SDS011;8716;52.268;20.968;2023-03-01T02:50:25;35.88;;;21.50;;
17199;SDS011;8716;52.268;20.968;2023-03-01T02:53:15;26.35;;;19.75;;
17199;SDS011;8716;52.268;20.968;2023-03-01T02:55:50;25.65;;;18.88;;
17199;SDS011;8716;52.268;20.968;2023-03-01T02:58:18;15.10;;;14.30;;
17199;SDS011;8716;52.268;20.968;2023-03-01T03:00:50;14.73;;;13.98;;
17199;SDS011;8716;52.268;20.968;2023-03-01T03:03:20;16.13;;;15.32;;
17199;SDS011;8716;52.268;20.968;2023-03-01T03:05:49;28.38;;;20.25;;
17199;SDS011;8716;52.268;20.968;2023-03-01T03:08:17;21.90;;;18.08;;
17199;SDS011;8716;52.268;20.968;2023-03-01T03:10:51;31.75;;;22.25;;
17199;SDS011;8716;52.268;20.968;2023-03-01T03:13:22;22.20;;;20.98;;
17199;SDS011;8716;52.268;20.968;2023-03-01T03:15:56;19.88;;;17.45;;
17199;SDS011;8716;52.268;20.968;2023-03-01T03:18:24;22.30;;;21.23;;
17199;SDS011;8716;52.268;20.968;2023-03-01T03:20:53;25.08;;;16.65;;
17199;SDS011;8716;52.268;20.968;2023-03-01T03:23:22;24.98;;;17.30;;
17199;SDS011;8716;52.268;20.968;2023-03-01T03:25:50;22.15;;;16.00;;
17199;SDS011;8716;52.268;20.968;2023-03-01T03:28:19;21.65;;;20.58;;
17199;SDS011;8716;52.268;20.968;2023-03-01T03:30:47;19.15;;;18.13;;
17199;SDS011;8716;52.268;20.968;2023-03-01T03:33:17;20.13;;;18.70;;
17199;SDS011;8716;52.268;20.968;2023-03-01T03:35:46;23.92;;;22.73;;
17199;SDS011;8716;52.268;20.968;2023-03-01T03:38:19;22.70;;;21.58;;
17199;SDS011;8716;52.268;20.968;2023-03-01T03:40:49;19.08;;;18.10;;
17199;SDS011;8716;52.268;20.968;2023-03-01T03:43:21;20.65;;;19.63;;
17199;SDS011;8716;52.268;20.968;2023-03-01T03:45:53;18.83;;;17.88;;
17199;SDS011;8716;52.268;20.968;2023-03-01T03:48:25;15.23;;;14.43;;
17199;SDS011;8716;52.268;20.968;2023-03-01T03:50:55;23.33;;;16.90;;
17199;SDS011;8716;52.268;20.968;2023-03-01T03:53:24;21.35;;;20.25;;
17199;SDS011;8716;52.268;20.968;2023-03-01T03:55:53;19.70;;;18.70;;
17199;SDS011;8716;52.268;20.968;2023-03-01T03:58:22;21.08;;;19.20;;
17199;SDS011;8716;52.268;20.968;2023-03-01T04:00:52;18.55;;;17.60;;
17199;SDS011;8716;52.268;20.968;2023-03-01T04:03:25;18.05;;;16.90;;
17199;SDS011;8716;52.268;20.968;2023-03-01T04:05:56;22.50;;;21.38;;
17199;SDS011;8716;52.268;20.968;2023-03-01T04:08:25;21.08;;;15.98;;
17199;SDS011;8716;52.268;20.968;2023-03-01T04:10:57;21.17;;;19.25;;
17199;SDS011;8716;52.268;20.968;2023-03-01T04:13:26;19.00;;;18.02;;
17199;SDS011;8716;52.268;20.968;2023-03-01T04:15:55;23.88;;;22.63;;
17199;SDS011;8716;52.268;20.968;2023-03-01T04:18:24;23.42;;;17.67;;
17199;SDS011;8716;52.268;20.968;2023-03-01T04:20:53;21.38;;;20.30;;
17199;SDS011;8716;52.268;20.968;2023-03-01T04:23:22;18.45;;;17.52;;
17199;SDS011;8716;52.268;20.968;2023-03-01T04:25:51;41.83;;;20.73;;
17199;SDS011;8716;52.268;20.968;2023-03-01T04:28:22;31.63;;;20.52;;
17199;SDS011;8716;52.268;20.968;2023-03-01T04:30:52;30.75;;;19.08;;
17199;SDS011;8716;52.268;20.968;2023-03-01T04:33:22;19.10;;;18.13;;
17199;SDS011;8716;52.268;20.968;2023-03-01T04:35:52;20.02;;;19.02;;
17199;SDS011;8716;52.268;20.968;2023-03-01T04:38:21;22.55;;;16.55;;
17199;SDS011;8716;52.268;20.968;2023-03-01T04:40:49;21.85;;;17.67;;
17199;SDS011;8716;52.268;20.968;2023-03-01T04:43:17;18.60;;;14.52;;
17199;SDS011;8716;52.268;20.968;2023-03-01T04:45:45;15.77;;;14.73;;
17199;SDS011;8716;52.268;20.968;2023-03-01T04:48:14;19.10;;;16.85;;
17199;SDS011;8716;52.268;20.968;2023-03-01T04:50:42;19.65;;;18.65;;
17199;SDS011;8716;52.268;20.968;2023-03-01T04:53:12;31.60;;;22.38;;
17199;SDS011;8716;52.268;20.968;2023-03-01T04:55:40;13.85;;;13.15;;
17199;SDS011;8716;52.268;20.968;2023-03-01T04:58:08;16.40;;;13.77;;
17199;SDS011;8716;52.268;20.968;2023-03-01T05:00:37;15.48;;;14.68;;
17199;SDS011;8716;52.268;20.968;2023-03-01T05:03:05;19.30;;;18.33;;
17199;SDS011;8716;52.268;20.968;2023-03-01T05:05:34;22.85;;;21.70;;
17199;SDS011;8716;52.268;20.968;2023-03-01T05:08:04;16.15;;;15.35;;
17199;SDS011;8716;52.268;20.968;2023-03-01T05:10:35;23.38;;;21.27;;
17199;SDS011;8716;52.268;20.968;2023-03-01T05:13:07;18.13;;;17.00;;
17199;SDS011;8716;52.268;20.968;2023-03-01T05:15:35;17.83;;;16.92;;
17199;SDS011;8716;52.268;20.968;2023-03-01T05:18:06;19.65;;;18.65;;
17199;SDS011;8716;52.268;20.968;2023-03-01T05:20:37;21.42;;;15.05;;
17199;SDS011;8716;52.268;20.968;2023-03-01T05:23:06;17.20;;;16.33;;
17199;SDS011;8716;52.268;20.968;2023-03-01T05:25:36;22.00;;;20.77;;
17199;SDS011;8716;52.268;20.968;2023-03-01T05:28:07;31.90;;;27.58;;
17199;SDS011;8716;52.268;20.968;2023-03-01T05:30:38;24.95;;;19.63;;
17199;SDS011;8716;52.268;20.968;2023-03-01T05:33:06;25.67;;;20.65;;
17199;SDS011;8716;52.268;20.968;2023-03-01T05:35:40;23.63;;;15.85;;
17199;SDS011;8716;52.268;20.968;2023-03-01T05:38:09;18.42;;;15.52;;
17199;SDS011;8716;52.268;20.968;2023-03-01T05:40:41;19.50;;;18.50;;
17199;SDS011;8716;52.268;20.968;2023-03-01T05:43:10;20.77;;;19.75;;
17199;SDS011;8716;52.268;20.968;2023-03-01T05:45:39;16.05;;;15.25;;
17199;SDS011;8716;52.268;20.968;2023-03-01T05:48:08;18.67;;;12.73;;
17199;SDS011;8716;52.268;20.968;2023-03-01T05:50:39;20.50;;;19.48;;
17199;SDS011;8716;52.268;20.968;2023-03-01T05:53:09;37.63;;;18.50;;
17199;SDS011;8716;52.268;20.968;2023-03-01T05:55:42;20.98;;;19.92;;
17199;SDS011;8716;52.268;20.968;2023-03-01T05:58:14;19.75;;;17.63;;
17199;SDS011;8716;52.268;20.968;2023-03-01T06:00:45;18.65;;;16.63;;
17199;SDS011;8716;52.268;20.968;2023-03-01T06:03:14;19.13;;;17.90;;
17199;SDS011;8716;52.268;20.968;2023-03-01T06:05:44;18.55;;;17.10;;
17199;SDS011;8716;52.268;20.968;2023-03-01T06:08:13;22.63;;;21.45;;
17199;SDS011;8716;52.268;20.968;2023-03-01T06:10:46;18.45;;;17.52;;
17199;SDS011;8716;52.268;20.968;2023-03-01T06:13:15;17.33;;;15.18;;
17199;SDS011;8716;52.268;20.968;2023-03-01T06:15:43;15.82;;;15.02;;
17199;SDS011;8716;52.268;20.968;2023-03-01T06:18:11;18.00;;;17.10;;
17199;SDS011;8716;52.268;20.968;2023-03-01T06:20:40;22.17;;;21.08;;
17199;SDS011;8716;52.268;20.968;2023-03-01T06:23:08;30.92;;;19.45;;
17199;SDS011;8716;52.268;20.968;2023-03-01T06:25:36;24.58;;;20.02;;
17199;SDS011;8716;52.268;20.968;2023-03-01T06:28:06;24.13;;;19.23;;
17199;SDS011;8716;52.268;20.968;2023-03-01T06:30:34;21.38;;;18.40;;
17199;SDS011;8716;52.268;20.968;2023-03-01T06:33:03;19.55;;;18.25;;
17199;SDS011;8716;52.268;20.968;2023-03-01T06:35:33;19.48;;;18.40;;
17199;SDS011;8716;52.268;20.968;2023-03-01T06:38:02;24.08;;;19.33;;
17199;SDS011;8716;52.268;20.968;2023-03-01T06:40:32;23.00;;;15.38;;
17199;SDS011;8716;52.268;20.968;2023-03-01T06:43:01;35.85;;;23.35;;
17199;SDS011;8716;52.268;20.968;2023-03-01T06:45:34;17.98;;;17.08;;
17199;SDS011;8716;52.268;20.968;2023-03-01T06:48:04;17.52;;;16.63;;
17199;SDS011;8716;52.268;20.968;2023-03-01T06:50:35;19.50;;;14.20;;
17199;SDS011;8716;52.268;20.968;2023-03-01T06:53:04;19.08;;;18.08;;
17199;SDS011;8716;52.268;20.968;2023-03-01T06:55:32;30.08;;;17.88;;
17199;SDS011;8716;52.268;20.968;2023-03-01T06:58:02;17.33;;;16.42;;
17199;SDS011;8716;52.268;20.968;2023-03-01T07:00:30;20.88;;;14.40;;
17199;SDS011;8716;52.268;20.968;2023-03-01T07:03:01;23.10;;;19.65;;
17199;SDS011;8716;52.268;20.968;2023-03-01T07:05:29;12.75;;;12.05;;
17199;SDS011;8716;52.268;20.968;2023-03-01T07:07:58;13.77;;;13.07;;
17199;SDS011;8716;52.268;20.968;2023-03-01T07:10:26;13.07;;;12.38;;
17199;SDS011;8716;52.268;20.968;2023-03-01T07:12:55;13.50;;;12.77;;
17199;SDS011;8716;52.268;20.968;2023-03-01T07:15:24;18.35;;;17.45;;
17199;SDS011;8716;52.268;20.968;2023-03-01T07:17:53;16.60;;;15.77;;
17199;SDS011;8716;52.268;20.968;2023-03-01T07:20:23;14.23;;;13.52;;
17199;SDS011;8716;52.268;20.968;2023-03-01T07:22:52;16.05;;;15.25;;
17199;SDS011;8716;52.268;20.968;2023-03-01T07:25:21;34.20;;;17.10;;
17199;SDS011;8716;52.268;20.968;2023-03-01T07:27:50;18.15;;;14.70;;
17199;SDS011;8716;52.268;20.968;2023-03-01T07:30:19;18.65;;;17.73;;
17199;SDS011;8716;52.268;20.968;2023-03-01T07:32:48;24.35;;;18.92;;
17199;SDS011;8716;52.268;20.968;2023-03-01T07:35:18;20.08;;;19.08;;
17199;SDS011;8716;52.268;20.968;2023-03-01T07:37:48;20.73;;;19.73;;
17199;SDS011;8716;52.268;20.968;2023-03-01T07:40:16;16.38;;;15.57;;
17199;SDS011;8716;52.268;20.968;2023-03-01T07:42:44;28.38;;;22.98;;
17199;SDS011;8716;52.268;20.968;2023-03-01T07:45:13;16.73;;;15.88;;
17199;SDS011;8716;52.268;20.968;2023-03-01T07:47:42;13.00;;;12.30;;
17199;SDS011;8716;52.268;20.968;2023-03-01T07:50:10;13.23;;;12.52;;
17199;SDS011;8716;52.268;20.968;2023-03-01T07:52:39;23.38;;;17.02;;
17199;SDS011;8716;52.268;20.968;2023-03-01T07:55:09;29.08;;;18.67;;
17199;SDS011;8716;52.268;20.968;2023-03-01T07:57:38;19.42;;;18.42;;
17199;SDS011;8716;52.268;20.968;2023-03-01T08:00:07;18.15;;;17.25;;
17199;SDS011;8716;52.268;20.968;2023-03-01T08:02:39;13.75;;;13.05;;
17199;SDS011;8716;52.268;20.968;2023-03-01T08:05:08;13.65;;;12.95;;
17199;SDS011;8716;52.268;20.968;2023-03-01T08:07:37;20.90;;;18.42;;
17199;SDS011;8716;52.268;20.968;2023-03-01T08:10:06;16.13;;;14.68;;
17199;SDS011;8716;52.268;20.968;2023-03-01T08:12:36;14.52;;;13.77;;
17199;SDS011;8716;52.268;20.968;2023-03-01T08:15:07;25.67;;;17.30;;
17199;SDS011;8716;52.268;20.968;2023-03-01T08:17:36;10.88;;;10.27;;
17199;SDS011;8716;52.268;20.968;2023-03-01T08:20:05;12.68;;;10.13;;
17199;SDS011;8716;52.268;20.968;2023-03-01T08:22:34;16.52;;;13.50;;
17199;SDS011;8716;52.268;20.968;2023-03-01T08:25:02;14.25;;;13.15;;
17199;SDS011;8716;52.268;20.968;2023-03-01T08:27:31;12.88;;;11.57;;
17199;SDS011;8716;52.268;20.968;2023-03-01T08:30:01;18.48;;;10.20;;
17199;SDS011;8716;52.268;20.968;2023-03-01T08:32:29;11.45;;;10.85;;
17199;SDS011;8716;52.268;20.968;2023-03-01T08:35:02;12.10;;;11.50;;
17199;SDS011;8716;52.268;20.968;2023-03-01T08:37:31;15.68;;;9.38;;
17199;SDS011;8716;52.268;20.968;2023-03-01T08:39:59;14.98;;;8.43;;
17199;SDS011;8716;52.268;20.968;2023-03-01T08:42:28;15.43;;;12.77;;
17199;SDS011;8716;52.268;20.968;2023-03-01T08:44:56;11.20;;;10.23;;
17199;SDS011;8716;52.268;20.968;2023-03-01T08:47:26;10.52;;;9.90;;
17199;SDS011;8716;52.268;20.968;2023-03-01T08:49:54;14.90;;;12.63;;
17199;SDS011;8716;52.268;20.968;2023-03-01T08:52:22;18.30;;;14.73;;
17199;SDS011;8716;52.268;20.968;2023-03-01T08:54:51;13.48;;;10.48;;
17199;SDS011;8716;52.268;20.968;2023-03-01T08:57:19;11.90;;;11.30;;
17199;SDS011;8716;52.268;20.968;2023-03-01T08:59:48;12.90;;;12.20;;
17199;SDS011;8716;52.268;20.968;2023-03-01T09:02:16;9.13;;;8.60;;
17199;SDS011;8716;52.268;20.968;2023-03-01T09:04:46;13.60;;;12.90;;
17199;SDS011;8716;52.268;20.968;2023-03-01T09:07:15;18.53;;;13.30;;
17199;SDS011;8716;52.268;20.968;2023-03-01T09:09:43;16.13;;;10.13;;
17199;SDS011;8716;52.268;20.968;2023-03-01T09:12:11;13.57;;;10.60;;
17199;SDS011;8716;52.268;20.968;2023-03-01T09:14:40;10.10;;;9.60;;
17199;SDS011;8716;52.268;20.968;2023-03-01T09:17:11;15.20;;;14.40;;
17199;SDS011;8716;52.268;20.968;2023-03-01T09:19:42;15.60;;;9.07;;
17199;SDS011;8716;52.268;20.968;2023-03-01T09:22:14;10.10;;;9.60;;
17199;SDS011;8716;52.268;20.968;2023-03-01T09:24:42;13.57;;;8.10;;
17199;SDS011;8716;52.268;20.968;2023-03-01T09:27:11;10.33;;;9.80;;
17199;SDS011;8716;52.268;20.968;2023-03-01T09:29:41;12.43;;;11.80;;
17199;SDS011;8716;52.268;20.968;2023-03-01T09:32:09;12.87;;;12.20;;
17199;SDS011;8716;52.268;20.968;2023-03-01T09:34:38;8.07;;;7.67;;
17199;SDS011;8716;52.268;20.968;2023-03-01T09:37:24;14.13;;;13.43;;
17199;SDS011;8716;52.268;20.968;2023-03-01T09:39:52;13.73;;;8.83;;
17199;SDS011;8716;52.268;20.968;2023-03-01T09:42:23;19.23;;;12.30;;
17199;SDS011;8716;52.268;20.968;2023-03-01T09:44:53;14.27;;;12.43;;
17199;SDS011;8716;52.268;20.968;2023-03-01T09:47:26;11.77;;;11.17;;
17199;SDS011;8716;52.268;20.968;2023-03-01T09:49:58;10.87;;;10.27;;
17199;SDS011;8716;52.268;20.968;2023-03-01T09:52:38;13.60;;;12.90;;
17199;SDS011;8716;52.268;20.968;2023-03-01T09:55:11;15.77;;;14.97;;
17199;SDS011;8716;52.268;20.968;2023-03-01T09:57:43;17.40;;;16.50;;
17199;SDS011;8716;52.268;20.968;2023-03-01T10:00:18;16.33;;;15.43;;
17199;SDS011;8716;52.268;20.968;2023-03-01T10:03:03;20.43;;;19.43;;
17199;SDS011;8716;52.268;20.968;2023-03-01T10:05:54;20.17;;;19.17;;
17199;SDS011;8716;52.268;20.968;2023-03-01T10:08:30;21.40;;;20.30;;
17199;SDS011;8716;52.268;20.968;2023-03-01T10:11:16;17.37;;;15.60;;
17199;SDS011;8716;52.268;20.968;2023-03-01T10:13:52;20.33;;;19.33;;
17199;SDS011;8716;52.268;20.968;2023-03-01T10:16:27;21.47;;;20.37;;
17199;SDS011;8716;52.268;20.968;2023-03-01T10:19:04;16.27;;;14.50;;
17199;SDS011;8716;52.268;20.968;2023-03-01T10:21:39;15.37;;;14.57;;
17199;SDS011;8716;52.268;20.968;2023-03-01T10:24:12;20.77;;;19.77;;
17199;SDS011;8716;52.268;20.968;2023-03-01T10:26:47;29.93;;;17.57;;
17199;SDS011;8716;52.268;20.968;2023-03-01T10:29:24;16.37;;;15.53;;
17199;SDS011;8716;52.268;20.968;2023-03-01T10:32:00;19.90;;;18.90;;
17199;SDS011;8716;52.268;20.968;2023-03-01T10:34:34;12.43;;;11.83;;
17199;SDS011;8716;52.268;20.968;2023-03-01T10:37:09;16.17;;;15.37;;
17199;SDS011;8716;52.268;20.968;2023-03-01T10:39:55;19.33;;;18.37;;
17199;SDS011;8716;52.268;20.968;2023-03-01T10:42:32;15.47;;;14.67;;
17199;SDS011;8716;52.268;20.968;2023-03-01T10:48:25;17.63;;;16.73;;
17199;SDS011;8716;52.268;20.968;2023-03-01T10:51:04;16.93;;;16.07;;
17199;SDS011;8716;52.268;20.968;2023-03-01T10:53:35;18.27;;;17.37;;
17199;SDS011;8716;52.268;20.968;2023-03-01T10:56:10;15.73;;;12.77;;
17199;SDS011;8716;52.268;20.968;2023-03-01T10:58:56;14.53;;;13.83;;
17199;SDS011;8716;52.268;20.968;2023-03-01T11:01:26;14.03;;;12.40;;
17199;SDS011;8716;52.268;20.968;2023-03-01T11:04:10;14.63;;;13.90;;
17199;SDS011;8716;52.268;20.968;2023-03-01T11:06:40;21.60;;;13.20;;
17199;SDS011;8716;52.268;20.968;2023-03-01T11:09:15;12.87;;;12.20;;
17199;SDS011;8716;52.268;20.968;2023-03-01T11:11:53;14.17;;;13.47;;
17199;SDS011;8716;52.268;20.968;2023-03-01T11:14:23;16.50;;;11.47;;
17199;SDS011;8716;52.268;20.968;2023-03-01T11:17:00;12.70;;;12.03;;
17199;SDS011;8716;52.268;20.968;2023-03-01T11:19:31;12.17;;;11.57;;
17199;SDS011;8716;52.268;20.968;2023-03-01T11:22:01;12.77;;;12.07;;
17199;SDS011;8716;52.268;20.968;2023-03-01T11:24:33;20.30;;;15.80;;
17199;SDS011;8716;52.268;20.968;2023-03-01T11:27:14;15.37;;;14.57;;
17199;SDS011;8716;52.268;20.968;2023-03-01T11:29:46;12.33;;;11.73;;
17199;SDS011;8716;52.268;20.968;2023-03-01T11:32:19;12.07;;;11.47;;
17199;SDS011;8716;52.268;20.968;2023-03-01T11:34:53;12.47;;;11.83;;
17199;SDS011;8716;52.268;20.968;2023-03-01T11:37:31;9.30;;;8.80;;
17199;SDS011;8716;52.268;20.968;2023-03-01T11:40:05;11.73;;;10.33;;
17199;SDS011;8716;52.268;20.968;2023-03-01T11:42:46;9.87;;;9.37;;
17199;SDS011;8716;52.268;20.968;2023-03-01T11:45:20;10.03;;;9.53;;
17199;SDS011;8716;52.268;20.968;2023-03-01T11:47:58;12.37;;;11.73;;
17199;SDS011;8716;52.268;20.968;2023-03-01T11:50:35;7.40;;;7.00;;
17199;SDS011;8716;52.268;20.968;2023-03-01T11:53:17;18.57;;;12.67;;
17199;SDS011;8716;52.268;20.968;2023-03-01T11:55:58;13.20;;;12.50;;
17199;SDS011;8716;52.268;20.968;2023-03-01T11:58:48;10.27;;;9.77;;
17199;SDS011;8716;52.268;20.968;2023-03-01T12:01:32;11.27;;;10.67;;
17199;SDS011;8716;52.268;20.968;2023-03-01T12:04:21;9.27;;;8.77;;
17199;SDS011;8716;52.268;20.968;2023-03-01T12:07:15;12.23;;;11.63;;
17199;SDS011;8716;52.268;20.968;2023-03-01T12:09:55;12.20;;;11.50;;
17199;SDS011;8716;52.268;20.968;2023-03-01T12:12:36;9.43;;;8.93;;
17199;SDS011;8716;52.268;20.968;2023-03-01T12:15:26;13.70;;;8.83;;
17199;SDS011;8716;52.268;20.968;2023-03-01T12:18:10;6.47;;;6.10;;
17199;SDS011;8716;52.268;20.968;2023-03-01T12:20:58;11.27;;;10.67;;
17199;SDS011;8716;52.268;20.968;2023-03-01T12:23:39;7.70;;;7.30;;
17199;SDS011;8716;52.268;20.968;2023-03-01T12:26:33;5.20;;;4.90;;
17199;SDS011;8716;52.268;20.968;2023-03-01T12:29:13;6.50;;;6.10;;
17199;SDS011;8716;52.268;20.968;2023-03-01T12:31:55;8.90;;;8.40;;
17199;SDS011;8716;52.268;20.968;2023-03-01T12:37:56;6.37;;;6.00;;
17199;SDS011;8716;52.268;20.968;2023-03-01T12:40:43;5.93;;;5.63;;
17199;SDS011;8716;52.268;20.968;2023-03-01T12:43:22;8.20;;;7.20;;
17199;SDS011;8716;52.268;20.968;2023-03-01T12:46:04;7.70;;;7.30;;
17199;SDS011;8716;52.268;20.968;2023-03-01T12:48:46;6.87;;;5.53;;
17199;SDS011;8716;52.268;20.968;2023-03-01T12:51:23;7.20;;;6.80;;
17199;SDS011;8716;52.268;20.968;2023-03-01T12:53:53;8.57;;;8.07;;
17199;SDS011;8716;52.268;20.968;2023-03-01T12:56:25;7.17;;;6.77;;
17199;SDS011;8716;52.268;20.968;2023-03-01T12:58:59;10.60;;;9.57;;
17199;SDS011;8716;52.268;20.968;2023-03-01T13:01:36;9.57;;;9.00;;
17199;SDS011;8716;52.268;20.968;2023-03-01T13:04:20;6.13;;;5.83;;
17199;SDS011;8716;52.268;20.968;2023-03-01T13:07:03;4.90;;;4.60;;
17199;SDS011;8716;52.268;20.968;2023-03-01T13:09:40;6.77;;;6.37;;
17199;SDS011;8716;52.268;20.968;2023-03-01T13:21:09;6.50;;;5.50;;
17199;SDS011;8716;52.268;20.968;2023-03-01T13:23:37;8.97;;;8.43;;
17199;SDS011;8716;52.268;20.968;2023-03-01T13:26:09;5.80;;;5.50;;
17199;SDS011;8716;52.268;20.968;2023-03-01T13:28:48;6.00;;;5.70;;
17199;SDS011;8716;52.268;20.968;2023-03-01T13:34:47;8.90;;;6.80;;
17199;SDS011;8716;52.268;20.968;2023-03-01T13:37:23;7.20;;;6.80;;
17199;SDS011;8716;52.268;20.968;2023-03-01T13:43:26;9.27;;;7.37;;
17199;SDS011;8716;52.268;20.968;2023-03-01T13:45:57;19.00;;;9.67;;
17199;SDS011;8716;52.268;20.968;2023-03-01T13:48:27;6.63;;;6.23;;
17199;SDS011;8716;52.268;20.968;2023-03-01T13:50:58;7.57;;;7.17;;
17199;SDS011;8716;52.268;20.968;2023-03-01T13:53:31;11.00;;;6.80;;
17199;SDS011;8716;52.268;20.968;2023-03-01T13:56:06;8.73;;;8.20;;
17199;SDS011;8716;52.268;20.968;2023-03-01T13:58:45;9.30;;;7.00;;
17199;SDS011;8716;52.268;20.968;2023-03-01T14:01:21;11.07;;;10.43;;
17199;SDS011;8716;52.268;20.968;2023-03-01T14:03:51;7.40;;;7.00;;
17199;SDS011;8716;52.268;20.968;2023-03-01T14:06:21;7.50;;;7.10;;
17199;SDS011;8716;52.268;20.968;2023-03-01T14:08:59;12.97;;;12.17;;
17199;SDS011;8716;52.268;20.968;2023-03-01T14:11:35;8.43;;;7.97;;
17199;SDS011;8716;52.268;20.968;2023-03-01T14:14:36;12.27;;;11.67;;
17199;SDS011;8716;52.268;20.968;2023-03-01T14:17:18;9.52;;;8.98;;
17199;SDS011;8716;52.268;20.968;2023-03-01T14:20:09;6.03;;;5.73;;
17199;SDS011;8716;52.268;20.968;2023-03-01T14:22:42;9.57;;;9.07;;
17199;SDS011;8716;52.268;20.968;2023-03-01T14:25:26;11.40;;;10.77;;
17199;SDS011;8716;52.268;20.968;2023-03-01T14:27:59;11.90;;;8.67;;
17199;SDS011;8716;52.268;20.968;2023-03-01T14:30:32;11.60;;;11.00;;
17199;SDS011;8716;52.268;20.968;2023-03-01T14:36:00;10.57;;;10.00;;
17199;SDS011;8716;52.268;20.968;2023-03-01T14:38:31;7.33;;;6.93;;
17199;SDS011;8716;52.268;20.968;2023-03-01T14:41:05;7.13;;;6.73;;
17199;SDS011;8716;52.268;20.968;2023-03-01T14:43:45;8.83;;;7.20;;
17199;SDS011;8716;52.268;20.968;2023-03-01T14:46:19;6.77;;;6.37;;
17199;SDS011;8716;52.268;20.968;2023-03-01T14:48:49;7.03;;;6.63;;
17199;SDS011;8716;52.268;20.968;2023-03-01T14:51:18;7.67;;;6.80;;
17199;SDS011;8716;52.268;20.968;2023-03-01T14:53:47;9.87;;;9.07;;
17199;SDS011;8716;52.268;20.968;2023-03-01T14:56:18;7.53;;;7.13;;
17199;SDS011;8716;52.268;20.968;2023-03-01T14:58:50;8.33;;;7.20;;
17199;SDS011;8716;52.268;20.968;2023-03-01T15:01:22;7.93;;;6.17;;
17199;SDS011;8716;52.268;20.968;2023-03-01T15:03:51;6.73;;;5.40;;
17199;SDS011;8716;52.268;20.968;2023-03-01T15:06:20;7.37;;;6.97;;
17199;SDS011;8716;52.268;20.968;2023-03-01T15:08:53;9.73;;;9.23;;
17199;SDS011;8716;52.268;20.968;2023-03-01T15:11:27;13.23;;;8.87;;
17199;SDS011;8716;52.268;20.968;2023-03-01T15:13:57;33.20;;;9.07;;
17199;SDS011;8716;52.268;20.968;2023-03-01T15:16:26;9.30;;;8.77;;
17199;SDS011;8716;52.268;20.968;2023-03-01T15:18:58;6.43;;;6.03;;
17199;SDS011;8716;52.268;20.968;2023-03-01T15:21:29;10.50;;;9.93;;